createdAt,value
2023-04-04T00:00:19.565Z,100.00
2023-04-04T00:02:46.574Z,100.00
2023-04-04T00:05:13.608Z,100.00
2023-04-04T00:07:40.118Z,100.00
2023-04-04T00:10:07.298Z,100.00
2023-04-04T00:12:34.039Z,100.00
2023-04-04T00:15:01.520Z,100.00
2023-04-04T00:17:28.133Z,100.00
2023-04-04T00:19:54.663Z,100.00
2023-04-04T00:22:21.274Z,100.00
2023-04-04T00:24:47.786Z,100.00
2023-04-04T00:27:14.568Z,100.00
2023-04-04T00:29:41.233Z,100.00
2023-04-04T00:32:07.839Z,100.00
2023-04-04T00:34:36.564Z,100.00
2023-04-04T00:37:03.362Z,100.00
2023-04-04T00:39:30.029Z,100.00
2023-04-04T00:41:57.418Z,100.00
2023-04-04T00:44:24.108Z,100.00
2023-04-04T00:46:52.642Z,100.00
2023-04-04T00:49:19.191Z,100.00
2023-04-04T00:51:46.453Z,100.00
2023-04-04T00:54:13.861Z,100.00
2023-04-04T00:56:40.705Z,100.00
2023-04-04T00:59:08.014Z,100.00
2023-04-04T01:01:36.444Z,100.00
2023-04-04T01:04:03.671Z,100.00
2023-04-04T01:06:30.911Z,100.00
2023-04-04T01:08:57.677Z,100.00
2023-04-04T01:11:26.052Z,100.00
2023-04-04T01:13:52.918Z,100.00
2023-04-04T01:16:19.593Z,100.00
2023-04-04T01:18:48.659Z,100.00
2023-04-04T01:21:17.425Z,100.00
2023-04-04T01:24:04.015Z,100.00
2023-04-04T01:26:31.387Z,100.00
2023-04-04T01:28:59.758Z,100.00
2023-04-04T01:31:29.545Z,100.00
2023-04-04T01:34:12.229Z,100.00
2023-04-04T01:36:57.924Z,100.00
2023-04-04T01:39:31.725Z,100.00
2023-04-04T01:41:59.445Z,100.00
2023-04-04T01:44:26.694Z,100.00
2023-04-04T01:46:56.699Z,100.00
2023-04-04T01:49:24.242Z,100.00
2023-04-04T01:51:52.772Z,100.00
2023-04-04T01:54:19.439Z,100.00
2023-04-04T01:56:46.637Z,100.00
2023-04-04T01:59:13.391Z,100.00
2023-04-04T02:01:40.055Z,100.00
2023-04-04T02:04:07.472Z,100.00
2023-04-04T02:06:34.116Z,100.00
2023-04-04T02:09:01.132Z,100.00
2023-04-04T02:11:27.766Z,100.00
2023-04-04T02:13:54.403Z,100.00
2023-04-04T02:16:21.532Z,100.00
2023-04-04T02:18:48.320Z,100.00
2023-04-04T02:21:14.841Z,100.00
2023-04-04T02:23:41.862Z,100.00
2023-04-04T02:26:08.496Z,100.00
2023-04-04T02:28:35.186Z,100.00
2023-04-04T02:31:05.146Z,100.00
2023-04-04T02:33:32.065Z,100.00
2023-04-04T02:36:01.719Z,100.00
2023-04-04T02:38:28.813Z,100.00
2023-04-04T02:40:55.589Z,100.00
2023-04-04T02:43:22.205Z,100.00
2023-04-04T02:45:49.522Z,100.00
2023-04-04T02:48:16.499Z,100.00
2023-04-04T02:50:43.467Z,100.00
2023-04-04T02:53:10.430Z,100.00
2023-04-04T02:55:36.965Z,100.00
2023-04-04T02:58:03.565Z,100.00
2023-04-04T03:00:30.277Z,100.00
2023-04-04T03:02:57.893Z,100.00
2023-04-04T03:05:28.535Z,100.00
2023-04-04T03:07:58.537Z,100.00
2023-04-04T03:10:26.460Z,100.00
2023-04-04T03:12:54.410Z,100.00
2023-04-04T03:15:21.631Z,100.00
2023-04-04T03:17:48.865Z,100.00
2023-04-04T03:20:16.418Z,100.00
2023-04-04T03:22:43.000Z,100.00
2023-04-04T03:25:10.138Z,100.00
2023-04-04T03:27:37.008Z,100.00
2023-04-04T03:30:04.104Z,100.00
2023-04-04T03:32:30.730Z,100.00
2023-04-04T03:34:57.335Z,100.00
2023-04-04T03:37:24.384Z,100.00
2023-04-04T03:39:51.146Z,100.00
2023-04-04T03:42:17.740Z,100.00
2023-04-04T03:44:44.302Z,100.00
2023-04-04T03:47:10.874Z,100.00
2023-04-04T03:49:37.454Z,100.00
2023-04-04T03:52:04.345Z,100.00
2023-04-04T03:54:30.940Z,100.00
2023-04-04T03:56:57.984Z,100.00
2023-04-04T03:59:24.991Z,100.00
2023-04-04T04:01:52.339Z,100.00
2023-04-04T04:04:18.926Z,100.00
2023-04-04T04:06:45.500Z,100.00
2023-04-04T04:09:12.810Z,100.00
2023-04-04T04:11:39.375Z,100.00
2023-04-04T04:14:06.176Z,100.00
2023-04-04T04:16:36.341Z,100.00
2023-04-04T04:19:03.616Z,100.00
2023-04-04T04:21:30.146Z,100.00
2023-04-04T04:23:56.710Z,100.00
2023-04-04T04:26:23.605Z,100.00
2023-04-04T04:28:50.218Z,100.00
2023-04-04T04:31:16.849Z,100.00
2023-04-04T04:33:43.438Z,100.00
2023-04-04T04:36:10.056Z,100.00
2023-04-04T04:38:36.909Z,100.00
2023-04-04T04:41:03.686Z,100.00
2023-04-04T04:43:30.626Z,100.00
2023-04-04T04:45:57.370Z,100.00
2023-04-04T04:48:23.968Z,100.00
2023-04-04T04:50:50.670Z,100.00
2023-04-04T04:53:17.230Z,100.00
2023-04-04T04:55:44.006Z,100.00
2023-04-04T04:58:11.339Z,100.00
2023-04-04T05:00:39.104Z,100.00
2023-04-04T05:03:09.059Z,100.00
2023-04-04T05:05:36.332Z,100.00
2023-04-04T05:08:03.598Z,100.00
2023-04-04T05:10:31.522Z,100.00
2023-04-04T05:12:58.386Z,100.00
2023-04-04T05:15:29.437Z,100.00
2023-04-04T05:17:56.120Z,100.00
2023-04-04T05:20:23.417Z,100.00
2023-04-04T05:22:51.736Z,100.00
2023-04-04T05:25:18.818Z,100.00
2023-04-04T05:27:49.016Z,100.00
2023-04-04T05:30:17.181Z,100.00
2023-04-04T05:32:46.911Z,100.00
2023-04-04T05:35:13.648Z,100.00
2023-04-04T05:37:40.987Z,100.00
2023-04-04T05:40:08.576Z,100.00
2023-04-04T05:42:35.356Z,100.00
2023-04-04T05:45:02.154Z,100.00
2023-04-04T05:47:28.832Z,100.00
2023-04-04T05:49:55.454Z,100.00
2023-04-04T05:52:22.061Z,100.00
2023-04-04T05:54:48.920Z,100.00
2023-04-04T05:57:15.637Z,100.00
2023-04-04T05:59:42.348Z,100.00
2023-04-04T06:02:09.288Z,100.00
2023-04-04T06:04:35.971Z,100.00
2023-04-04T06:07:02.715Z,100.00
2023-04-04T06:09:29.757Z,100.00
2023-04-04T06:11:56.585Z,100.00
2023-04-04T06:14:23.181Z,100.00
2023-04-04T06:16:49.845Z,100.00
2023-04-04T06:19:17.053Z,100.00
2023-04-04T06:21:43.616Z,100.00
2023-04-04T06:24:10.182Z,100.00
2023-04-04T06:26:36.914Z,100.00
2023-04-04T06:29:03.823Z,100.00
2023-04-04T06:31:31.371Z,100.00
2023-04-04T06:33:58.629Z,100.00
2023-04-04T06:36:25.706Z,100.00
2023-04-04T06:38:52.484Z,100.00
2023-04-04T06:41:19.059Z,100.00
2023-04-04T06:43:48.839Z,100.00
2023-04-04T06:46:15.781Z,100.00
2023-04-04T06:48:42.673Z,100.00
2023-04-04T06:51:10.024Z,100.00
2023-04-04T06:53:37.093Z,100.00
2023-04-04T06:56:05.012Z,100.00
2023-04-04T06:58:34.845Z,100.00
2023-04-04T07:01:02.550Z,100.00
2023-04-04T07:03:29.254Z,100.00
2023-04-04T07:05:55.909Z,100.00
2023-04-04T07:08:22.519Z,100.00
2023-04-04T07:10:49.306Z,100.00
2023-04-04T07:13:15.852Z,100.00
2023-04-04T07:15:48.964Z,99.73
2023-04-04T07:18:16.547Z,99.45
2023-04-04T07:20:43.949Z,98.43
2023-04-04T07:23:13.560Z,98.49
2023-04-04T07:25:40.109Z,97.25
2023-04-04T07:28:12.835Z,96.17
2023-04-04T07:30:40.391Z,98.47
2023-04-04T07:33:07.267Z,93.62
2023-04-04T07:35:35.067Z,94.60
2023-04-04T07:38:01.690Z,91.33
2023-04-04T07:40:28.715Z,91.30
2023-04-04T07:42:55.453Z,90.96
2023-04-04T07:45:22.805Z,89.37
2023-04-04T07:47:49.652Z,88.94
2023-04-04T07:50:17.054Z,89.17
2023-04-04T07:52:49.931Z,88.91
2023-04-04T07:55:16.964Z,88.58
2023-04-04T07:57:43.902Z,85.39
2023-04-04T08:00:11.065Z,84.26
2023-04-04T08:02:38.342Z,82.25
2023-04-04T08:05:05.503Z,81.69
2023-04-04T08:07:32.127Z,82.04
2023-04-04T08:09:58.706Z,82.07
2023-04-04T08:12:25.307Z,79.66
2023-04-04T08:14:52.366Z,78.93
2023-04-04T08:17:19.163Z,80.14
2023-04-04T08:19:45.933Z,78.51
2023-04-04T08:22:12.611Z,78.04
2023-04-04T08:24:39.141Z,80.75
2023-04-04T08:27:06.365Z,79.52
2023-04-04T08:29:34.500Z,74.18
2023-04-04T08:32:01.346Z,73.41
2023-04-04T08:34:28.878Z,72.86
2023-04-04T08:36:56.338Z,70.77
2023-04-04T08:39:23.041Z,67.23
2023-04-04T08:41:59.037Z,66.16
2023-04-04T08:44:28.140Z,66.69
2023-04-04T08:46:56.583Z,64.71
2023-04-04T08:49:24.608Z,64.14
2023-04-04T08:51:52.564Z,64.29
2023-04-04T08:54:21.108Z,62.79
2023-04-04T08:56:48.455Z,62.79
2023-04-04T08:59:19.141Z,61.40
2023-04-04T09:01:45.840Z,59.33
2023-04-04T09:04:12.546Z,59.88
2023-04-04T09:06:39.313Z,56.48
2023-04-04T09:09:06.839Z,54.87
2023-04-04T09:11:34.013Z,53.07
2023-04-04T09:14:04.739Z,52.56
2023-04-04T09:16:31.618Z,49.19
2023-04-04T09:18:58.221Z,51.52
2023-04-04T09:21:24.790Z,50.22
2023-04-04T09:24:02.164Z,45.66
2023-04-04T09:26:28.925Z,45.55
2023-04-04T09:28:55.797Z,46.01
2023-04-04T09:31:24.784Z,45.61
2023-04-04T09:33:51.665Z,45.23
2023-04-04T09:36:18.841Z,43.08
2023-04-04T09:38:48.800Z,41.00
2023-04-04T09:41:16.653Z,40.62
2023-04-04T09:43:46.057Z,39.13
2023-04-04T09:46:13.072Z,39.00
2023-04-04T09:48:39.727Z,40.47
2023-04-04T09:51:07.468Z,39.75
2023-04-04T09:53:36.224Z,41.26
2023-04-04T09:56:03.450Z,42.35
2023-04-04T09:58:32.189Z,41.27
2023-04-04T10:01:01.348Z,39.05
2023-04-04T10:03:29.253Z,39.73
2023-04-04T10:06:00.161Z,39.49
2023-04-04T10:08:28.637Z,39.22
2023-04-04T10:11:11.344Z,38.90
2023-04-04T10:13:44.785Z,37.72
2023-04-04T10:16:12.208Z,37.01
2023-04-04T10:18:39.455Z,36.90
2023-04-04T10:23:39.086Z,37.83
2023-04-04T10:26:06.227Z,38.65
2023-04-04T10:28:34.602Z,36.40
2023-04-04T10:31:13.278Z,37.22
2023-04-04T10:33:58.736Z,38.18
2023-04-04T10:36:30.537Z,34.79
2023-04-04T10:39:14.698Z,35.59
2023-04-04T10:41:42.439Z,35.03
2023-04-04T10:44:24.051Z,32.67
2023-04-04T10:46:54.326Z,30.60
2023-04-04T10:49:21.874Z,30.88
2023-04-04T10:51:56.336Z,30.50
2023-04-04T10:54:25.666Z,28.30
2023-04-04T10:56:52.864Z,26.03
2023-04-04T10:59:19.577Z,26.91
2023-04-04T11:02:07.181Z,26.57
2023-04-04T11:04:47.268Z,23.90
2023-04-04T11:07:17.560Z,20.49
2023-04-04T11:09:57.075Z,19.65
2023-04-04T11:12:37.894Z,18.86
2023-04-04T11:15:12.774Z,18.67
2023-04-04T11:17:46.517Z,18.97
2023-04-04T11:20:18.492Z,18.53
2023-04-04T11:22:46.101Z,18.58
2023-04-04T11:25:25.029Z,18.34
2023-04-04T11:27:56.754Z,18.07
2023-04-04T11:30:23.993Z,18.98
2023-04-04T11:33:03.745Z,18.94
2023-04-04T11:35:33.290Z,20.27
2023-04-04T11:38:01.204Z,20.12
2023-04-04T11:40:41.877Z,19.70
2023-04-04T11:43:12.790Z,19.86
2023-04-04T11:45:47.027Z,20.93
2023-04-04T11:48:19.079Z,21.39
2023-04-04T11:50:49.822Z,21.63
2023-04-04T11:53:17.680Z,22.25
2023-04-04T11:55:48.241Z,22.09
2023-04-04T11:58:18.138Z,22.85
2023-04-04T12:00:46.650Z,23.24
2023-04-04T12:03:16.393Z,22.62
2023-04-04T12:05:44.659Z,22.29
2023-04-04T12:08:12.657Z,21.33
2023-04-04T12:10:41.116Z,22.18
2023-04-04T12:13:31.877Z,22.40
2023-04-04T12:15:58.557Z,20.57
2023-04-04T12:18:26.496Z,20.44
2023-04-04T12:20:53.742Z,21.01
2023-04-04T12:23:20.516Z,20.26
2023-04-04T12:25:50.040Z,19.95
2023-04-04T12:28:16.716Z,19.42
2023-04-04T12:30:43.598Z,20.44
2023-04-04T12:33:10.256Z,19.65
2023-04-04T12:35:37.762Z,19.58
2023-04-04T12:38:11.104Z,20.01
2023-04-04T12:40:39.377Z,20.33
2023-04-04T12:43:08.112Z,19.86
2023-04-04T12:45:41.361Z,20.44
2023-04-04T12:48:18.214Z,19.81
2023-04-04T12:50:54.214Z,19.56
2023-04-04T12:53:28.464Z,18.24
2023-04-04T12:56:01.433Z,18.58
2023-04-04T12:58:28.134Z,18.76
2023-04-04T13:00:55.748Z,20.38
2023-04-04T13:03:24.656Z,20.01
2023-04-04T13:05:54.879Z,21.13
2023-04-04T13:08:21.722Z,20.17
2023-04-04T13:11:06.224Z,19.94
2023-04-04T13:13:38.963Z,19.91
2023-04-04T13:16:09.846Z,20.21
2023-04-04T13:18:39.463Z,20.60
2023-04-04T13:21:09.977Z,20.22
2023-04-04T13:23:41.403Z,19.86
2023-04-04T13:26:09.764Z,19.95
2023-04-04T13:28:37.832Z,19.54
2023-04-04T13:31:06.297Z,18.44
2023-04-04T13:33:37.742Z,19.18
2023-04-04T13:36:04.651Z,19.30
2023-04-04T13:38:31.767Z,19.72
2023-04-04T13:40:59.451Z,19.60
2023-04-04T13:43:27.169Z,20.54
2023-04-04T13:45:58.149Z,20.35
2023-04-04T13:48:24.794Z,20.45
2023-04-04T13:50:51.609Z,20.21
2023-04-04T13:53:19.356Z,19.72
2023-04-04T13:58:20.184Z,19.96
2023-04-04T14:00:50.379Z,20.05
2023-04-04T14:03:18.249Z,20.85
2023-04-04T14:05:45.050Z,20.48
2023-04-04T14:08:11.978Z,20.41
2023-04-04T14:10:38.689Z,19.48
2023-04-04T14:13:05.862Z,19.47
2023-04-04T14:15:33.591Z,20.69
2023-04-04T14:18:00.325Z,20.86
2023-04-04T14:20:26.997Z,18.68
2023-04-04T14:22:53.636Z,17.29
2023-04-04T14:25:20.260Z,16.81
2023-04-04T14:27:47.368Z,16.76
2023-04-04T14:30:14.475Z,16.74
2023-04-04T14:32:41.082Z,16.58
2023-04-04T14:35:08.074Z,16.58
2023-04-04T14:37:37.993Z,15.67
2023-04-04T14:40:06.969Z,15.87
2023-04-04T14:42:34.507Z,15.94
2023-04-04T14:45:05.278Z,15.30
2023-04-04T14:47:32.349Z,13.64
2023-04-04T14:49:59.239Z,14.90
2023-04-04T14:52:25.890Z,15.28
2023-04-04T14:54:52.446Z,14.91
2023-04-04T14:57:20.184Z,14.65
2023-04-04T14:59:46.773Z,14.27
2023-04-04T15:02:17.970Z,14.61
2023-04-04T15:04:45.042Z,14.50
2023-04-04T15:07:14.007Z,14.73
2023-04-04T15:09:40.590Z,15.16
2023-04-04T15:12:07.179Z,14.56
2023-04-04T15:14:33.782Z,15.68
2023-04-04T15:17:01.672Z,15.60
2023-04-04T15:19:28.734Z,16.11
2023-04-04T15:21:57.458Z,16.54
2023-04-04T15:24:24.131Z,17.92
2023-04-04T15:26:50.774Z,17.63
2023-04-04T15:29:17.447Z,18.39
2023-04-04T15:34:16.473Z,19.78
2023-04-04T15:36:44.447Z,20.39
2023-04-04T15:39:14.182Z,19.85
2023-04-04T15:41:41.127Z,19.43
2023-04-04T15:44:08.026Z,21.53
2023-04-04T15:46:34.674Z,21.03
2023-04-04T15:49:01.369Z,20.66
2023-04-04T15:51:29.110Z,20.32
2023-04-04T15:53:56.325Z,21.72
2023-04-04T15:56:23.294Z,22.07
2023-04-04T15:58:49.923Z,22.54
2023-04-04T16:01:17.036Z,22.72
2023-04-04T16:03:43.787Z,24.54
2023-04-04T16:06:13.204Z,24.31
2023-04-04T16:08:41.302Z,24.71
2023-04-04T16:11:08.423Z,24.59
2023-04-04T16:13:35.405Z,24.85
2023-04-04T16:16:02.195Z,26.63
2023-04-04T16:18:29.716Z,26.46
2023-04-04T16:20:56.395Z,27.69
2023-04-04T16:23:23.020Z,29.79
2023-04-04T16:25:50.870Z,30.08
2023-04-04T16:28:17.541Z,30.11
2023-04-04T16:30:44.163Z,29.82
2023-04-04T16:33:10.987Z,30.20
2023-04-04T16:35:38.586Z,30.76
2023-04-04T16:38:05.148Z,31.64
2023-04-04T16:40:31.988Z,32.63
2023-04-04T16:43:02.068Z,32.81
2023-04-04T16:45:28.671Z,32.78
2023-04-04T16:47:55.380Z,33.51
2023-04-04T16:50:22.008Z,33.45
2023-04-04T16:52:48.676Z,33.41
2023-04-04T16:55:15.292Z,33.87
2023-04-04T16:57:42.901Z,33.48
2023-04-04T17:00:14.090Z,34.26
2023-04-04T17:02:45.758Z,35.46
2023-04-04T17:05:14.042Z,35.17
2023-04-04T17:07:41.068Z,35.34
2023-04-04T17:10:11.713Z,35.64
2023-04-04T17:12:39.473Z,37.45
2023-04-04T17:15:08.314Z,35.16
2023-04-04T17:17:35.253Z,35.18
2023-04-04T17:20:02.435Z,35.63
2023-04-04T17:22:29.170Z,35.97
2023-04-04T17:24:55.977Z,37.03
2023-04-04T17:27:22.621Z,36.92
2023-04-04T17:29:49.204Z,37.51
2023-04-04T17:32:15.999Z,37.90
2023-04-04T17:34:42.667Z,38.53
2023-04-04T17:37:11.366Z,38.97
2023-04-04T17:39:38.596Z,39.90
2023-04-04T17:42:05.725Z,39.68
2023-04-04T17:44:32.324Z,39.98
2023-04-04T17:47:00.867Z,40.15
2023-04-04T17:49:27.494Z,40.08
2023-04-04T17:51:54.171Z,40.18
2023-04-04T17:54:21.605Z,40.52
2023-04-04T17:56:49.806Z,40.76
2023-04-04T17:59:17.704Z,40.96
2023-04-04T18:01:45.541Z,41.53
2023-04-04T18:04:12.703Z,41.65
2023-04-04T18:06:41.158Z,42.08
2023-04-04T18:09:10.426Z,42.87
2023-04-04T18:11:38.607Z,42.85
2023-04-04T18:14:05.487Z,43.32
2023-04-04T18:16:39.089Z,43.71
2023-04-04T18:19:07.353Z,44.22
2023-04-04T18:21:33.966Z,44.95
2023-04-04T18:24:00.686Z,44.95
2023-04-04T18:26:27.877Z,45.34
2023-04-04T18:28:54.554Z,46.05
2023-04-04T18:31:21.691Z,46.38
2023-04-04T18:33:49.952Z,46.20
2023-04-04T18:36:16.703Z,46.65
2023-04-04T18:38:46.230Z,47.66
2023-04-04T18:41:12.863Z,48.06
2023-04-04T18:43:39.681Z,49.18
2023-04-04T18:46:06.528Z,49.49
2023-04-04T18:48:33.772Z,50.32
2023-04-04T18:51:00.844Z,50.46
2023-04-04T18:53:30.913Z,50.68
2023-04-04T18:55:58.139Z,51.36
2023-04-04T18:58:28.466Z,51.64
2023-04-04T19:00:56.100Z,51.80
2023-04-04T19:03:23.197Z,52.28
2023-04-04T19:05:50.568Z,52.22
2023-04-04T19:08:18.111Z,52.33
2023-04-04T19:10:47.885Z,52.54
2023-04-04T19:13:15.415Z,53.41
2023-04-04T19:15:43.267Z,54.82
2023-04-04T19:18:11.028Z,55.87
2023-04-04T19:20:37.778Z,56.45
2023-04-04T19:23:04.396Z,57.30
2023-04-04T19:25:31.167Z,58.48
2023-04-04T19:27:58.436Z,59.34
2023-04-04T19:30:48.042Z,59.39
2023-04-04T19:33:21.457Z,58.46
2023-04-04T19:35:55.986Z,58.03
2023-04-04T19:38:32.087Z,58.18
2023-04-04T19:41:12.566Z,58.35
2023-04-04T19:43:42.669Z,61.23
2023-04-04T19:46:32.718Z,64.33
2023-04-04T19:49:02.033Z,68.02
2023-04-04T19:51:28.545Z,69.03
2023-04-04T19:53:59.936Z,67.48
2023-04-04T19:56:28.235Z,70.66
2023-04-04T19:58:58.056Z,70.65
2023-04-04T20:01:30.039Z,70.17
2023-04-04T20:03:57.064Z,71.16
2023-04-04T20:06:29.225Z,73.17
2023-04-04T20:08:59.406Z,74.19
2023-04-04T20:11:34.064Z,75.48
2023-04-04T20:14:09.164Z,76.21
2023-04-04T20:16:36.562Z,76.36
2023-04-04T20:19:06.875Z,75.73
2023-04-04T20:21:35.828Z,76.98
2023-04-04T20:24:05.675Z,77.29
2023-04-04T20:26:35.492Z,79.80
2023-04-04T20:29:06.920Z,79.87
2023-04-04T20:31:44.547Z,79.90
2023-04-04T20:34:45.166Z,82.72
2023-04-04T20:37:22.003Z,83.89
2023-04-04T20:40:00.282Z,81.59
2023-04-04T20:42:30.045Z,82.22
2023-04-04T20:45:02.615Z,83.97
2023-04-04T20:47:33.496Z,84.86
2023-04-04T20:50:00.217Z,84.54
2023-04-04T20:52:26.940Z,86.39
2023-04-04T20:54:53.490Z,86.27
2023-04-04T20:57:24.909Z,87.09
2023-04-04T20:59:51.636Z,87.69
2023-04-04T21:02:23.626Z,89.32
2023-04-04T21:04:52.144Z,90.72
2023-04-04T21:07:40.320Z,90.63
2023-04-04T21:10:21.942Z,91.44
2023-04-04T21:12:48.486Z,92.30
2023-04-04T21:15:24.807Z,93.21
2023-04-04T21:17:51.820Z,93.58
2023-04-04T21:20:47.101Z,93.67
2023-04-04T21:23:28.868Z,94.35
2023-04-04T21:26:04.060Z,93.78
2023-04-04T21:28:32.346Z,94.24
2023-04-04T21:30:59.928Z,94.45
2023-04-04T21:33:26.930Z,95.77
2023-04-04T21:35:56.294Z,96.25
2023-04-04T21:38:32.104Z,95.57
2023-04-04T21:41:07.413Z,95.40
2023-04-04T21:43:33.952Z,96.72
2023-04-04T21:46:00.636Z,97.92
2023-04-04T21:48:27.439Z,98.06
2023-04-04T21:50:54.121Z,98.79
2023-04-04T21:53:22.428Z,98.86
2023-04-04T21:55:49.049Z,99.17
2023-04-04T21:58:15.859Z,99.27
2023-04-04T22:00:42.862Z,100.00
2023-04-04T22:03:09.644Z,100.00
2023-04-04T22:05:39.374Z,100.00
2023-04-04T22:08:06.748Z,100.00
2023-04-04T22:10:33.790Z,100.00
2023-04-04T22:13:03.520Z,100.00
2023-04-04T22:15:30.079Z,100.00
2023-04-04T22:18:03.935Z,100.00
2023-04-04T22:20:33.803Z,100.00
2023-04-04T22:23:05.226Z,100.00
2023-04-04T22:25:33.980Z,100.00
2023-04-04T22:28:03.481Z,100.00
2023-04-04T22:30:32.041Z,100.00
2023-04-04T22:33:03.744Z,100.00
2023-04-04T22:35:30.500Z,100.00
2023-04-04T22:38:01.012Z,100.00
2023-04-04T22:40:28.716Z,100.00
2023-04-04T22:43:01.665Z,100.00
2023-04-04T22:45:29.761Z,100.00
2023-04-04T22:47:58.054Z,100.00
2023-04-04T22:50:25.140Z,100.00
2023-04-04T22:52:54.800Z,100.00
2023-04-04T22:55:23.962Z,100.00
2023-04-04T22:57:50.804Z,100.00
2023-04-04T23:00:17.694Z,100.00
2023-04-04T23:02:46.309Z,100.00
2023-04-04T23:05:14.755Z,100.00
2023-04-04T23:07:42.310Z,100.00
2023-04-04T23:10:11.634Z,100.00
2023-04-04T23:12:39.000Z,100.00
2023-04-04T23:15:07.162Z,100.00
2023-04-04T23:17:35.945Z,100.00
2023-04-04T23:20:03.788Z,100.00
2023-04-04T23:22:30.382Z,100.00
2023-04-04T23:24:56.935Z,100.00
2023-04-04T23:27:23.456Z,100.00
2023-04-04T23:29:50.791Z,100.00
2023-04-04T23:32:17.355Z,100.00
2023-04-04T23:34:43.925Z,100.00
2023-04-04T23:37:10.541Z,100.00
2023-04-04T23:39:37.283Z,100.00
2023-04-04T23:42:04.566Z,100.00
2023-04-04T23:44:31.235Z,100.00
2023-04-04T23:46:57.992Z,100.00
2023-04-04T23:49:24.620Z,100.00
2023-04-04T23:51:51.243Z,100.00
2023-04-04T23:54:17.906Z,100.00
2023-04-04T23:56:44.517Z,100.00
2023-04-04T23:59:11.678Z,100.00
